Time;durP1;ratioP1;P1;durP2;ratioP2;P2;SDS_P1;SDS_P2;PMS_P1;PMS_P2;Temp;Humidity;BMP_temperature;BMP_pressure;BME280_temperature;BME280_humidity;BME280_pressure;Samples;Min_cycle;Max_cycle;Signal;HPM_P1;HPM_P2
2023/08/28 00:00:59;;;;;;;5.85;3.45;;;15.70;99.90;;;;;;5080006;28;20334;-52
2023/08/28 00:03:45;;;;;;;5.22;3.40;;;15.70;99.90;;;;;;5079557;28;20032;-48
2023/08/28 00:06:31;;;;;;;4.68;3.22;;;15.80;99.90;;;;;;5079627;28;20021;-52
2023/08/28 00:09:17;;;;;;;4.95;3.10;;;15.70;99.90;;;;;;5077618;28;20051;-51
2023/08/28 00:12:03;;;;;;;3.60;2.90;;;15.80;99.90;;;;;;5080564;28;20032;-53
2023/08/28 00:14:49;;;;;;;5.78;3.30;;;15.70;99.90;;;;;;5087626;28;20071;-49
2023/08/28 00:17:36;;;;;;;4.57;3.00;;;15.70;99.90;;;;;;5084682;28;20024;-48
2023/08/28 00:20:22;;;;;;;4.35;3.13;;;15.60;99.90;;;;;;5083807;28;20031;-52
2023/08/28 00:23:08;;;;;;;6.05;3.20;;;15.80;99.90;;;;;;5085423;28;20023;-50
2023/08/28 00:25:54;;;;;;;3.78;3.22;;;15.90;99.90;;;;;;5081115;28;20017;-48
2023/08/28 00:28:40;;;;;;;4.10;3.15;;;15.90;99.90;;;;;;5084323;28;20032;-52
2023/08/28 00:31:25;;;;;;;4.03;3.05;;;15.80;99.90;;;;;;5084238;28;20060;-52
2023/08/28 00:34:11;;;;;;;4.70;3.40;;;15.70;99.90;;;;;;5082860;28;20037;-54
2023/08/28 00:36:57;;;;;;;5.20;3.22;;;15.70;99.90;;;;;;5083878;28;20028;-52
2023/08/28 00:39:43;;;;;;;4.28;3.38;;;15.60;99.90;;;;;;5065565;28;20123;-50
2023/08/28 00:42:29;;;;;;;3.60;3.28;;;15.60;99.90;;;;;;5082282;28;20023;-51
2023/08/28 00:45:15;;;;;;;7.43;4.28;;;15.60;99.90;;;;;;5081553;28;20059;-51
2023/08/28 00:48:02;;;;;;;3.95;3.33;;;15.70;99.90;;;;;;5082200;28;20116;-51
2023/08/28 00:50:50;;;;;;;12.63;7.55;;;15.60;99.90;;;;;;5085470;28;20045;-49
2023/08/28 00:53:37;;;;;;;4.47;3.85;;;15.70;99.90;;;;;;5084931;28;20032;-55
2023/08/28 00:56:23;;;;;;;6.47;3.50;;;15.70;99.90;;;;;;5085621;28;20055;-51
2023/08/28 00:59:09;;;;;;;6.60;3.38;;;15.60;99.90;;;;;;5091687;28;20032;-55
2023/08/28 01:01:55;;;;;;;5.22;3.10;;;15.50;99.90;;;;;;5085924;28;20075;-52
2023/08/28 01:04:41;;;;;;;5.53;3.38;;;15.50;99.90;;;;;;5077133;28;20033;-53
2023/08/28 01:07:43;;;;;;;6.05;3.20;;;15.50;99.90;;;;;;5089908;28;20100;-52
2023/08/28 01:10:41;;;;;;;5.63;3.13;;;15.50;99.90;;;;;;5075128;28;20044;-50
2023/08/28 01:13:41;;;;;;;4.63;3.28;;;15.50;99.90;;;;;;5090144;28;20024;-51
2023/08/28 01:16:28;;;;;;;4.78;3.20;;;15.40;99.90;;;;;;5088508;28;20024;-47
2023/08/28 01:19:47;;;;;;;4.05;3.20;;;15.30;99.90;;;;;;5059990;28;20035;-52
2023/08/28 01:22:45;;;;;;;4.70;3.42;;;15.30;99.90;;;;;;5059481;28;20405;-47
2023/08/28 01:25:32;;;;;;;5.35;3.65;;;15.20;99.90;;;;;;5080266;28;20025;-47
2023/08/28 01:28:18;;;;;;;4.45;3.58;;;15.10;99.90;;;;;;5085321;28;20028;-55
2023/08/28 01:31:07;;;;;;;3.92;3.20;;;15.10;99.90;;;;;;5079527;28;20521;-50
2023/08/28 01:33:54;;;;;;;5.25;3.33;;;15.10;99.90;;;;;;5060496;28;20496;-52
2023/08/28 01:36:51;;;;;;;3.38;3.08;;;15.20;99.90;;;;;;5077434;28;20036;-51
2023/08/28 01:39:44;;;;;;;4.00;3.20;;;15.10;99.90;;;;;;5085458;28;20400;-52
2023/08/28 01:42:30;;;;;;;4.78;3.67;;;15.00;99.90;;;;;;5082111;28;20103;-52
2023/08/28 01:45:17;;;;;;;4.40;3.30;;;14.90;99.90;;;;;;5082162;28;20052;-49
2023/08/28 01:48:04;;;;;;;5.97;3.75;;;14.90;99.90;;;;;;5082424;28;20563;-51
2023/08/28 01:50:50;;;;;;;6.47;3.50;;;14.90;99.90;;;;;;5081574;28;20025;-52
2023/08/28 01:53:36;;;;;;;6.32;3.35;;;15.00;99.90;;;;;;5072219;28;20075;-52
2023/08/28 01:56:25;;;;;;;6.90;3.70;;;15.00;99.90;;;;;;5071157;28;20025;-53
2023/08/28 01:59:11;;;;;;;4.90;3.50;;;15.00;99.90;;;;;;5071955;28;20020;-53
2023/08/28 02:01:57;;;;;;;4.63;3.20;;;15.00;99.90;;;;;;5070813;28;20477;-48
2023/08/28 02:04:43;;;;;;;4.45;3.30;;;15.00;99.90;;;;;;5081873;28;20423;-50
2023/08/28 02:07:29;;;;;;;5.57;3.00;;;15.00;99.90;;;;;;5090663;28;20604;-54
2023/08/28 02:10:15;;;;;;;6.10;3.17;;;15.00;99.90;;;;;;5090626;28;20441;-49
2023/08/28 02:13:01;;;;;;;5.43;3.17;;;15.00;99.90;;;;;;5091824;28;20024;-51
2023/08/28 02:15:47;;;;;;;4.35;3.30;;;15.00;99.90;;;;;;5091646;28;20024;-55
2023/08/28 02:18:32;;;;;;;4.03;3.10;;;14.90;99.90;;;;;;5091894;28;20081;-53
2023/08/28 02:21:18;;;;;;;7.88;3.50;;;14.80;99.90;;;;;;5095473;28;20132;-52
2023/08/28 02:24:05;;;;;;;4.90;3.45;;;14.70;99.90;;;;;;5090640;28;20081;-54
2023/08/28 02:26:51;;;;;;;4.63;3.92;;;14.60;99.90;;;;;;5090594;28;20020;-52
2023/08/28 02:29:36;;;;;;;4.55;3.70;;;14.50;99.90;;;;;;5090844;28;20531;-54
2023/08/28 02:32:23;;;;;;;3.60;3.20;;;14.40;99.90;;;;;;5091692;28;20032;-52
2023/08/28 02:35:10;;;;;;;4.90;3.92;;;14.40;99.90;;;;;;5094211;28;20024;-52
2023/08/28 02:37:56;;;;;;;4.03;3.63;;;14.50;99.90;;;;;;5084034;28;20434;-52
2023/08/28 02:40:43;;;;;;;4.07;3.55;;;14.40;99.90;;;;;;5091121;28;20474;-50
2023/08/28 02:43:29;;;;;;;7.18;3.70;;;14.40;99.90;;;;;;5075991;28;20020;-48
2023/08/28 02:46:15;;;;;;;6.03;3.78;;;14.40;99.90;;;;;;5090719;28;20107;-49
2023/08/28 02:49:01;;;;;;;5.70;3.92;;;14.30;99.90;;;;;;5090592;28;20377;-50
2023/08/28 02:51:46;;;;;;;6.75;4.00;;;14.20;99.90;;;;;;5090616;28;20038;-50
2023/08/28 02:54:32;;;;;;;6.90;4.03;;;14.10;99.90;;;;;;5090556;28;20024;-55
2023/08/28 02:57:19;;;;;;;5.28;3.95;;;14.00;99.90;;;;;;5091182;28;20067;-51
2023/08/28 03:00:05;;;;;;;7.55;3.78;;;13.90;99.90;;;;;;5074577;28;20048;-52
2023/08/28 03:02:51;;;;;;;5.38;4.10;;;14.00;99.90;;;;;;5084398;28;20421;-52
2023/08/28 03:05:37;;;;;;;6.22;3.70;;;14.00;99.90;;;;;;5090052;28;20539;-48
2023/08/28 03:08:23;;;;;;;6.38;4.03;;;14.20;99.90;;;;;;5090344;28;20451;-49
2023/08/28 03:11:09;;;;;;;6.05;4.40;;;14.10;99.90;;;;;;5091431;28;20039;-55
2023/08/28 03:13:55;;;;;;;5.63;3.70;;;14.20;99.90;;;;;;5084454;28;20505;-52
2023/08/28 03:16:41;;;;;;;4.88;3.88;;;14.10;99.90;;;;;;5090617;28;20028;-49
2023/08/28 03:19:27;;;;;;;4.15;3.58;;;14.00;99.90;;;;;;5089996;28;20036;-50
2023/08/28 03:22:13;;;;;;;6.82;3.97;;;14.00;99.90;;;;;;5089373;28;20028;-52
2023/08/28 03:24:59;;;;;;;7.28;4.07;;;13.90;99.90;;;;;;5089934;28;20561;-50
2023/08/28 03:27:45;;;;;;;6.38;4.28;;;13.80;99.90;;;;;;5089800;28;20020;-54
2023/08/28 03:30:31;;;;;;;8.30;4.50;;;13.70;99.90;;;;;;5089960;28;20085;-52
2023/08/28 03:33:17;;;;;;;7.78;5.13;;;13.60;99.90;;;;;;5090451;28;20024;-55
2023/08/28 03:36:04;;;;;;;5.72;4.22;;;13.60;99.90;;;;;;5090716;28;20442;-50
2023/08/28 03:38:50;;;;;;;5.35;4.43;;;13.60;99.90;;;;;;5089723;28;20024;-50
2023/08/28 03:41:36;;;;;;;8.15;4.45;;;13.60;99.90;;;;;;5089392;28;20437;-52
2023/08/28 03:44:22;;;;;;;6.03;4.50;;;13.80;99.90;;;;;;5091025;28;20487;-49
2023/08/28 03:47:08;;;;;;;4.97;4.20;;;13.90;99.90;;;;;;5089465;28;20028;-54
2023/08/28 03:49:54;;;;;;;6.70;4.22;;;14.00;99.90;;;;;;5089354;28;20031;-51
2023/08/28 03:52:40;;;;;;;5.63;4.63;;;14.00;99.90;;;;;;5090083;28;20085;-55
2023/08/28 03:55:29;;;;;;;5.63;4.10;;;14.10;99.90;;;;;;5089578;28;20024;-48
2023/08/28 03:58:16;;;;;;;8.02;4.40;;;14.10;99.90;;;;;;5074733;28;20048;-50
2023/08/28 04:01:04;;;;;;;6.55;4.50;;;14.20;99.90;;;;;;5089285;28;20459;-49
2023/08/28 04:03:50;;;;;;;5.50;4.05;;;14.30;99.90;;;;;;5089221;28;20047;-50
2023/08/28 04:06:36;;;;;;;6.65;4.65;;;14.20;99.90;;;;;;5074315;28;20036;-51
2023/08/28 04:09:21;;;;;;;6.50;4.43;;;14.20;99.90;;;;;;5089864;28;20051;-51
2023/08/28 04:12:07;;;;;;;6.10;4.07;;;14.30;99.90;;;;;;5089458;28;20620;-51
2023/08/28 04:14:53;;;;;;;7.22;4.68;;;14.30;99.90;;;;;;5088923;28;20039;-53
2023/08/28 04:17:39;;;;;;;6.78;4.50;;;14.40;99.90;;;;;;5089140;28;20454;-52
2023/08/28 04:20:25;;;;;;;7.40;4.70;;;14.50;99.90;;;;;;5088844;28;20072;-50
2023/08/28 04:23:13;;;;;;;7.20;4.53;;;14.40;99.90;;;;;;5089309;28;20032;-51
2023/08/28 04:26:00;;;;;;;6.13;4.20;;;14.40;99.90;;;;;;5077754;28;20028;-55
2023/08/28 04:28:46;;;;;;;7.15;4.60;;;14.50;99.90;;;;;;5082463;28;20067;-51
2023/08/28 04:31:31;;;;;;;6.75;4.10;;;14.40;99.90;;;;;;5088431;28;20039;-52
2023/08/28 04:34:17;;;;;;;5.82;3.90;;;14.40;99.90;;;;;;5089339;28;20032;-48
2023/08/28 04:37:04;;;;;;;5.97;4.03;;;14.40;99.90;;;;;;5089579;28;20412;-48
2023/08/28 04:39:50;;;;;;;4.75;4.15;;;14.40;99.90;;;;;;5090766;28;20020;-49
2023/08/28 04:42:35;;;;;;;5.82;4.60;;;14.30;99.90;;;;;;5088065;28;20393;-50
2023/08/28 04:45:21;;;;;;;7.45;4.97;;;14.30;99.90;;;;;;5092965;28;20024;-48
2023/08/28 04:48:07;;;;;;;4.95;4.30;;;14.20;99.90;;;;;;5073741;28;20031;-53
2023/08/28 04:50:54;;;;;;;6.97;4.90;;;14.20;99.90;;;;;;5089357;28;20031;-54
2023/08/28 04:53:40;;;;;;;5.57;4.63;;;14.30;99.90;;;;;;5089007;28;20411;-51
2023/08/28 04:56:26;;;;;;;5.35;4.60;;;14.40;99.90;;;;;;5088977;28;20028;-56
2023/08/28 04:59:12;;;;;;;5.80;4.82;;;14.50;99.90;;;;;;5077513;28;20040;-48
2023/08/28 05:01:58;;;;;;;8.57;4.55;;;14.40;99.90;;;;;;5092575;28;20016;-52
2023/08/28 05:04:44;;;;;;;4.97;4.43;;;14.40;99.90;;;;;;5092826;28;20059;-50
2023/08/28 05:07:30;;;;;;;6.57;5.03;;;14.40;99.90;;;;;;5091658;28;20107;-51
2023/08/28 05:10:16;;;;;;;5.55;4.93;;;14.40;99.90;;;;;;5092393;28;20107;-52
2023/08/28 05:13:02;;;;;;;6.50;5.40;;;14.50;99.90;;;;;;5091484;28;20035;-52
2023/08/28 05:15:48;;;;;;;6.75;5.68;;;14.60;99.90;;;;;;5090999;28;20030;-49
2023/08/28 05:18:34;;;;;;;7.28;5.65;;;14.50;99.90;;;;;;5092692;28;20047;-51
2023/08/28 05:21:20;;;;;;;5.63;4.70;;;14.60;99.90;;;;;;5092379;28;20051;-49
2023/08/28 05:24:06;;;;;;;5.30;4.80;;;14.60;99.90;;;;;;5092192;28;20047;-47
2023/08/28 05:26:52;;;;;;;16.40;13.82;;;14.60;99.90;;;;;;5092130;28;20023;-49
2023/08/28 05:29:38;;;;;;;7.00;6.30;;;14.70;99.90;;;;;;5092426;28;20111;-55
2023/08/28 05:32:24;;;;;;;5.97;5.00;;;14.80;99.90;;;;;;5094905;28;20032;-53
2023/08/28 05:35:10;;;;;;;9.65;5.60;;;14.80;99.90;;;;;;5090689;28;20694;-52
2023/08/28 05:37:56;;;;;;;7.25;5.82;;;14.80;99.90;;;;;;5091941;28;20515;-53
2023/08/28 05:40:43;;;;;;;6.18;4.82;;;14.80;99.90;;;;;;5091465;28;20389;-52
2023/08/28 05:43:28;;;;;;;7.50;4.80;;;14.80;99.90;;;;;;5092390;28;20025;-50
2023/08/28 05:46:14;;;;;;;5.88;5.07;;;14.70;99.90;;;;;;5092134;28;20020;-52
2023/08/28 05:49:00;;;;;;;7.95;4.68;;;14.70;99.90;;;;;;5093328;28;20153;-51
2023/08/28 05:51:46;;;;;;;6.00;5.40;;;14.70;99.90;;;;;;5082268;28;20538;-50
2023/08/28 05:54:32;;;;;;;9.50;5.35;;;14.70;99.90;;;;;;5092130;28;20020;-53
2023/08/28 05:57:19;;;;;;;5.45;4.70;;;14.70;99.90;;;;;;5091373;28;20039;-51
2023/08/28 06:00:08;;;;;;;10.02;5.05;;;14.80;99.90;;;;;;5091706;28;20040;-50
2023/08/28 06:02:54;;;;;;;7.78;5.32;;;14.80;99.90;;;;;;5091458;28;20020;-54
2023/08/28 06:05:40;;;;;;;7.18;4.72;;;14.90;99.90;;;;;;5063089;28;20028;-53
2023/08/28 06:08:26;;;;;;;6.88;5.00;;;14.90;99.90;;;;;;5091114;28;20062;-54
2023/08/28 06:11:11;;;;;;;8.60;5.68;;;14.90;99.90;;;;;;5090453;28;20028;-50
2023/08/28 06:13:59;;;;;;;6.47;5.22;;;14.90;99.90;;;;;;5086148;28;20059;-54
2023/08/28 06:16:45;;;;;;;7.28;6.00;;;14.90;99.90;;;;;;5090816;28;20073;-55
2023/08/28 06:19:31;;;;;;;6.20;5.45;;;14.90;99.90;;;;;;5084738;28;20405;-55
2023/08/28 06:22:17;;;;;;;7.75;5.80;;;14.90;99.90;;;;;;5091011;28;20028;-50
2023/08/28 06:25:04;;;;;;;12.63;5.82;;;15.00;99.90;;;;;;5091046;28;20021;-55
2023/08/28 06:27:49;;;;;;;10.23;6.40;;;15.00;99.90;;;;;;5096026;28;20031;-49
2023/08/28 06:30:35;;;;;;;7.22;6.43;;;15.00;99.90;;;;;;5090402;28;20064;-52
2023/08/28 06:33:21;;;;;;;11.20;6.32;;;15.10;99.90;;;;;;5090610;28;20016;-52
2023/08/28 06:36:07;;;;;;;7.55;5.95;;;15.10;99.90;;;;;;5090057;28;20031;-54
2023/08/28 06:38:53;;;;;;;8.15;5.55;;;15.10;99.90;;;;;;5093048;28;20043;-52
2023/08/28 06:41:39;;;;;;;8.68;6.63;;;15.10;99.90;;;;;;5089326;28;20055;-49
2023/08/28 06:44:25;;;;;;;9.75;6.75;;;15.10;99.90;;;;;;5091495;28;20043;-49
2023/08/28 06:47:12;;;;;;;8.13;6.03;;;15.30;99.90;;;;;;5091067;28;20431;-51
2023/08/28 06:49:58;;;;;;;8.25;6.78;;;15.30;99.90;;;;;;5095172;28;20067;-49
2023/08/28 06:52:46;;;;;;;8.50;6.72;;;15.30;99.90;;;;;;5085303;28;20081;-51
2023/08/28 06:55:35;;;;;;;7.25;6.43;;;15.40;99.90;;;;;;5090373;28;20055;-52
2023/08/28 06:58:21;;;;;;;7.75;6.95;;;15.40;99.90;;;;;;5089414;28;20456;-52
2023/08/28 07:01:07;;;;;;;9.18;7.03;;;15.50;99.90;;;;;;5090434;28;20028;-50
2023/08/28 07:03:53;;;;;;;8.88;7.97;;;15.50;99.90;;;;;;5098406;28;20024;-54
2023/08/28 07:06:39;;;;;;;9.50;7.53;;;15.50;99.90;;;;;;5092585;28;20116;-49
2023/08/28 07:09:25;;;;;;;9.60;6.55;;;15.60;99.90;;;;;;5085324;28;20021;-51
2023/08/28 07:12:10;;;;;;;11.20;6.65;;;15.70;99.90;;;;;;5091100;28;20401;-48
2023/08/28 07:15:26;;;;;;;10.57;7.68;;;15.70;99.90;;;;;;5070634;28;20035;-50
2023/08/28 07:18:12;;;;;;;7.07;6.38;;;15.80;99.90;;;;;;5091506;28;20029;-47
2023/08/28 07:20:58;;;;;;;7.60;6.70;;;15.80;99.90;;;;;;5089403;28;20029;-51
2023/08/28 07:23:44;;;;;;;10.43;6.75;;;15.80;99.90;;;;;;5089084;28;20103;-51
2023/08/28 07:26:30;;;;;;;12.98;7.13;;;15.70;99.90;;;;;;5089888;28;20025;-49
2023/08/28 07:29:17;;;;;;;8.85;6.70;;;15.80;99.90;;;;;;5090616;28;20055;-54
2023/08/28 07:32:03;;;;;;;9.15;7.53;;;15.80;99.90;;;;;;5092088;28;20039;-56
2023/08/28 07:34:49;;;;;;;8.95;7.63;;;15.70;99.90;;;;;;5071001;28;20032;-55
2023/08/28 07:37:36;;;;;;;8.00;6.78;;;15.70;99.90;;;;;;5071811;28;20108;-54
2023/08/28 07:40:22;;;;;;;7.97;7.15;;;15.70;99.90;;;;;;5095429;28;20040;-52
2023/08/28 07:43:11;;;;;;;9.00;7.47;;;15.70;99.90;;;;;;5076280;28;20093;-54
2023/08/28 07:46:00;;;;;;;8.88;7.30;;;15.80;99.90;;;;;;5078319;28;20404;-51
2023/08/28 07:48:46;;;;;;;9.27;7.57;;;15.80;99.90;;;;;;5076204;28;20035;-52
2023/08/28 07:51:32;;;;;;;8.50;7.10;;;15.80;99.90;;;;;;5091903;28;20036;-50
2023/08/28 07:54:18;;;;;;;9.40;7.97;;;15.90;99.90;;;;;;5092406;28;20504;-55
2023/08/28 07:57:04;;;;;;;9.57;8.57;;;15.80;99.90;;;;;;5092072;28;20032;-49
2023/08/28 07:59:50;;;;;;;9.00;8.10;;;15.70;99.90;;;;;;5094883;28;20028;-52
2023/08/28 08:02:39;;;;;;;8.88;7.97;;;15.80;99.90;;;;;;5080116;28;20024;-48
2023/08/28 08:05:25;;;;;;;9.30;8.23;;;15.90;99.90;;;;;;5090299;28;20012;-49
2023/08/28 08:08:11;;;;;;;8.77;7.97;;;15.90;99.90;;;;;;5090287;28;20028;-52
2023/08/28 08:10:58;;;;;;;8.93;8.02;;;16.00;99.90;;;;;;5089514;28;20149;-48
2023/08/28 08:13:44;;;;;;;9.45;8.20;;;16.10;99.90;;;;;;5083764;28;20021;-48
2023/08/28 08:16:29;;;;;;;10.30;7.68;;;16.20;99.90;;;;;;5090291;28;20043;-50
2023/08/28 08:19:15;;;;;;;9.52;8.32;;;16.20;99.90;;;;;;5091263;28;20093;-50
2023/08/28 08:22:02;;;;;;;10.80;8.07;;;16.20;99.90;;;;;;5085764;28;20081;-49
2023/08/28 08:24:48;;;;;;;9.52;7.65;;;16.20;99.90;;;;;;5090213;28;20081;-52
2023/08/28 08:27:34;;;;;;;9.25;8.35;;;16.10;99.90;;;;;;5090334;28;20097;-52
2023/08/28 08:30:20;;;;;;;8.68;7.88;;;16.30;99.90;;;;;;5088162;28;20662;-47
2023/08/28 08:33:06;;;;;;;11.73;8.65;;;16.30;99.90;;;;;;5083273;28;20401;-48
2023/08/28 08:35:52;;;;;;;9.52;7.75;;;16.20;99.90;;;;;;5104219;28;20168;-52
2023/08/28 08:38:38;;;;;;;10.80;8.52;;;16.30;99.90;;;;;;5088573;28;20032;-47
2023/08/28 08:41:25;;;;;;;9.93;7.68;;;16.40;99.90;;;;;;5087710;28;20017;-51
2023/08/28 08:44:11;;;;;;;10.38;7.97;;;16.40;99.90;;;;;;5104771;28;20059;-50
2023/08/28 08:46:57;;;;;;;12.00;8.85;;;16.40;99.90;;;;;;5114312;28;20488;-51
2023/08/28 08:49:48;;;;;;;8.73;7.25;;;16.40;99.90;;;;;;5099583;28;20046;-51
2023/08/28 08:52:38;;;;;;;8.77;7.70;;;16.60;99.90;;;;;;5082251;28;20138;-50
2023/08/28 08:55:33;;;;;;;9.77;8.77;;;16.70;99.90;;;;;;5088037;28;20547;-51
2023/08/28 08:58:21;;;;;;;9.48;8.23;;;16.70;99.90;;;;;;5078965;28;20658;-51
2023/08/28 09:01:08;;;;;;;11.15;8.27;;;16.70;99.90;;;;;;5088680;28;20055;-53
2023/08/28 09:03:56;;;;;;;8.13;7.32;;;16.80;99.90;;;;;;5084234;28;20024;-51
2023/08/28 09:06:43;;;;;;;8.15;7.35;;;16.80;99.90;;;;;;5082897;28;20028;-55
2023/08/28 09:09:31;;;;;;;10.57;8.38;;;16.80;99.90;;;;;;5070560;28;20568;-54
2023/08/28 09:12:18;;;;;;;9.48;8.13;;;16.80;99.90;;;;;;5085538;28;20028;-54
2023/08/28 09:15:05;;;;;;;12.35;8.40;;;16.90;99.90;;;;;;5074170;28;20021;-55
2023/08/28 09:17:52;;;;;;;10.90;8.15;;;16.90;99.90;;;;;;5074788;28;20033;-54
2023/08/28 09:20:38;;;;;;;8.38;7.57;;;17.00;99.90;;;;;;5084611;28;20016;-57
2023/08/28 09:23:31;;;;;;;9.77;8.77;;;17.10;99.90;;;;;;5084871;28;20028;-53
2023/08/28 09:26:22;;;;;;;9.48;8.27;;;17.00;99.90;;;;;;5074095;28;20040;-51
2023/08/28 09:29:08;;;;;;;9.10;7.95;;;17.00;99.90;;;;;;5073103;28;20535;-54
2023/08/28 09:32:03;;;;;;;8.05;7.35;;;17.10;99.90;;;;;;5074206;28;20524;-54
2023/08/28 09:34:48;;;;;;;9.68;8.13;;;17.30;99.90;;;;;;5073107;28;20029;-55
2023/08/28 09:37:34;;;;;;;9.18;7.90;;;17.50;99.90;;;;;;5073778;28;20116;-53
2023/08/28 09:40:47;;;;;;;8.15;7.22;;;17.60;99.90;;;;;;5069233;28;20654;-51
2023/08/28 09:43:35;;;;;;;9.57;8.02;;;17.70;99.90;;;;;;5093513;28;20043;-50
2023/08/28 09:46:21;;;;;;;9.00;7.82;;;17.90;99.90;;;;;;5083576;28;20032;-55
2023/08/28 09:49:09;;;;;;;9.57;8.15;;;18.00;99.90;;;;;;5093927;28;20032;-51
2023/08/28 09:51:57;;;;;;;8.88;7.93;;;17.90;99.90;;;;;;5071585;28;20024;-51
2023/08/28 09:54:44;;;;;;;8.68;7.32;;;17.70;99.90;;;;;;5082936;28;20020;-56
2023/08/28 09:57:31;;;;;;;7.22;6.47;;;17.70;99.90;;;;;;5091866;28;20097;-54
2023/08/28 10:00:17;;;;;;;7.03;6.22;;;17.70;99.90;;;;;;5092683;28;20075;-55
2023/08/28 10:03:05;;;;;;;7.72;6.88;;;17.90;99.90;;;;;;5092524;28;20020;-52
2023/08/28 10:05:52;;;;;;;8.50;6.82;;;17.90;99.90;;;;;;5092540;28;20587;-54
2023/08/28 10:08:39;;;;;;;10.57;7.10;;;18.10;99.90;;;;;;5084063;28;20086;-55
2023/08/28 10:11:37;;;;;;;8.23;6.35;;;18.20;99.90;;;;;;5083932;28;20040;-57
2023/08/28 10:14:26;;;;;;;7.90;7.05;;;18.50;99.90;;;;;;5082677;28;20025;-56
2023/08/28 10:17:14;;;;;;;9.05;5.80;;;18.60;99.90;;;;;;5089379;28;20066;-52
2023/08/28 10:20:03;;;;;;;7.43;6.38;;;18.70;99.90;;;;;;5084104;28;20025;-51
2023/08/28 10:22:50;;;;;;;7.38;6.68;;;18.60;99.90;;;;;;5077494;28;20025;-55
2023/08/28 10:25:36;;;;;;;8.27;6.25;;;18.70;99.90;;;;;;5072668;28;20099;-56
2023/08/28 10:28:25;;;;;;;7.28;6.50;;;18.70;99.90;;;;;;5072862;28;20082;-56
2023/08/28 10:31:12;;;;;;;7.75;6.93;;;18.90;99.90;;;;;;5073312;28;20121;-56
2023/08/28 10:33:59;;;;;;;6.90;6.30;;;18.90;99.90;;;;;;5074514;28;20036;-53
2023/08/28 10:36:46;;;;;;;9.18;6.60;;;18.80;99.90;;;;;;5073650;28;20043;-56
2023/08/28 10:39:42;;;;;;;8.15;5.97;;;18.40;99.90;;;;;;5071705;28;20028;-55
2023/08/28 10:42:33;;;;;;;9.02;6.13;;;18.60;99.90;;;;;;5072865;28;20099;-55
2023/08/28 10:45:22;;;;;;;6.22;5.38;;;18.70;99.90;;;;;;5072519;28;20028;-52
2023/08/28 10:48:08;;;;;;;6.75;4.88;;;18.60;99.90;;;;;;5091351;28;20028;-54
2023/08/28 10:50:59;;;;;;;14.07;10.85;;;18.60;99.90;;;;;;5092657;28;20024;-56
2023/08/28 10:53:45;;;;;;;5.80;5.28;;;18.80;99.90;;;;;;5092635;28;20381;-58
2023/08/28 10:56:32;;;;;;;7.68;5.53;;;18.90;99.90;;;;;;5091525;28;20028;-57
2023/08/28 10:59:25;;;;;;;5.75;5.15;;;18.70;99.90;;;;;;5093436;28;20496;-56
2023/08/28 11:02:11;;;;;;;8.30;4.82;;;18.50;99.90;;;;;;5092266;28;20481;-58
2023/08/28 11:05:13;;;;;;;6.93;5.32;;;18.70;99.90;;;;;;5091070;28;20054;-58
2023/08/28 11:08:06;;;;;;;8.73;4.05;;;18.80;99.90;;;;;;5092034;28;20131;-61
2023/08/28 11:11:19;;;;;;;5.70;3.78;;;18.90;99.90;;;;;;5079780;28;20071;-48
2023/08/28 11:14:13;;;;;;;5.03;3.35;;;19.00;99.40;;;;;;5092787;28;20381;-56
2023/08/28 11:17:15;;;;;;;6.78;3.70;;;19.10;99.10;;;;;;5092967;28;20027;-55
2023/08/28 11:20:03;;;;;;;5.22;3.80;;;19.10;99.00;;;;;;5091034;28;20032;-56
2023/08/28 11:23:01;;;;;;;5.78;3.40;;;19.10;98.90;;;;;;5091285;28;20028;-56
2023/08/28 11:25:47;;;;;;;3.40;2.97;;;19.00;99.30;;;;;;5078105;28;20396;-56
2023/08/28 11:28:47;;;;;;;5.45;3.45;;;19.00;99.50;;;;;;5090691;28;20078;-53
2023/08/28 11:31:34;;;;;;;6.47;3.60;;;19.20;99.10;;;;;;5090627;28;20081;-49
2023/08/28 11:34:20;;;;;;;5.47;3.28;;;19.00;98.80;;;;;;5077441;28;20032;-54
2023/08/28 11:37:06;;;;;;;5.85;3.65;;;18.90;99.00;;;;;;5090870;28;20132;-53
2023/08/28 11:39:55;;;;;;;5.10;3.60;;;18.90;99.20;;;;;;5091051;28;20051;-52
2023/08/28 11:42:41;;;;;;;4.68;3.30;;;19.00;99.20;;;;;;5092141;28;20017;-52
2023/08/28 11:45:27;;;;;;;4.38;3.05;;;19.00;99.40;;;;;;5091068;28;20027;-50
2023/08/28 11:48:16;;;;;;;4.70;3.60;;;19.10;98.80;;;;;;5076722;28;20109;-51
2023/08/28 11:51:07;;;;;;;4.03;3.47;;;19.20;98.50;;;;;;5091608;28;20103;-52
2023/08/28 11:53:53;;;;;;;5.80;3.20;;;19.10;98.70;;;;;;5092116;28;20099;-55
2023/08/28 11:56:41;;;;;;;4.90;3.20;;;19.30;98.60;;;;;;5092088;28;20032;-57
2023/08/28 11:59:27;;;;;;;5.63;3.40;;;19.20;98.60;;;;;;5091979;28;20436;-52
2023/08/28 12:02:18;;;;;;;4.78;3.47;;;19.30;98.80;;;;;;5091367;28;20392;-47
2023/08/28 12:05:04;;;;;;;4.65;3.53;;;19.50;98.30;;;;;;5090988;28;20024;-49
2023/08/28 12:07:50;;;;;;;6.38;3.42;;;19.50;98.10;;;;;;5092637;28;20027;-53
2023/08/28 12:10:37;;;;;;;7.57;3.80;;;19.40;98.70;;;;;;5094982;28;20511;-50
2023/08/28 12:13:24;;;;;;;4.13;3.40;;;19.10;98.70;;;;;;5095729;28;20024;-51
2023/08/28 12:16:20;;;;;;;6.45;4.00;;;19.00;98.60;;;;;;5095993;28;20173;-59
2023/08/28 12:19:06;;;;;;;5.35;3.30;;;18.90;98.70;;;;;;5094806;28;20400;-52
2023/08/28 12:21:52;;;;;;;3.58;3.28;;;19.20;98.10;;;;;;5079782;28;20032;-53
2023/08/28 12:24:42;;;;;;;5.20;3.83;;;19.30;97.90;;;;;;5096373;28;20160;-57
2023/08/28 12:27:28;;;;;;;7.15;5.57;;;19.50;97.90;;;;;;5095965;28;20035;-50
2023/08/28 12:30:18;;;;;;;4.78;3.30;;;19.60;97.80;;;;;;5095956;28;20492;-51
2023/08/28 12:33:04;;;;;;;4.65;3.70;;;19.80;97.70;;;;;;5095333;28;20450;-54
2023/08/28 12:35:53;;;;;;;5.30;3.55;;;19.90;97.70;;;;;;5095352;28;20024;-54
2023/08/28 12:38:49;;;;;;;5.72;4.85;;;20.00;97.10;;;;;;5095293;28;20024;-53
2023/08/28 12:41:47;;;;;;;5.65;3.58;;;20.10;97.20;;;;;;5095618;28;20024;-53
2023/08/28 12:44:32;;;;;;;4.45;3.10;;;19.90;97.20;;;;;;5095170;28;20041;-55
2023/08/28 12:47:22;;;;;;;3.53;3.17;;;20.00;96.70;;;;;;5095229;28;20024;-53
2023/08/28 12:50:10;;;;;;;6.53;3.70;;;19.80;96.70;;;;;;5095412;28;20557;-53
2023/08/28 12:52:55;;;;;;;3.22;2.92;;;19.70;97.20;;;;;;5081341;28;20377;-53
2023/08/28 12:55:41;;;;;;;4.22;3.83;;;19.70;96.90;;;;;;5095071;28;20024;-50
2023/08/28 12:58:27;;;;;;;5.35;3.97;;;19.50;97.10;;;;;;5094941;28;20125;-50
2023/08/28 13:01:13;;;;;;;4.72;3.85;;;19.40;97.50;;;;;;5095413;28;20017;-54
2023/08/28 13:03:59;;;;;;;4.72;3.38;;;19.40;97.70;;;;;;5095121;28;20021;-53
2023/08/28 13:06:47;;;;;;;4.55;4.15;;;19.40;97.80;;;;;;5093978;28;20500;-53
2023/08/28 13:09:33;;;;;;;4.85;4.30;;;19.30;97.90;;;;;;5079287;28;20047;-53
2023/08/28 13:12:20;;;;;;;5.35;4.85;;;19.20;97.50;;;;;;5079909;28;20028;-52
2023/08/28 13:15:07;;;;;;;6.93;4.55;;;19.30;97.30;;;;;;5080028;28;20024;-54
2023/08/28 13:17:53;;;;;;;6.40;4.28;;;19.20;97.80;;;;;;5093370;28;20058;-54
2023/08/28 13:20:39;;;;;;;5.05;3.75;;;19.10;97.90;;;;;;5077536;28;20434;-55
2023/08/28 13:23:25;;;;;;;5.65;4.18;;;19.10;97.80;;;;;;5093627;28;20032;-56
2023/08/28 13:26:11;;;;;;;5.55;3.40;;;19.00;97.70;;;;;;5094618;28;20020;-53
2023/08/28 13:28:58;;;;;;;3.00;2.70;;;19.10;97.00;;;;;;5079716;28;20032;-50
2023/08/28 13:31:44;;;;;;;4.30;3.08;;;19.30;96.90;;;;;;5094815;28;20405;-53
2023/08/28 13:34:30;;;;;;;3.58;2.72;;;19.80;96.50;;;;;;5093536;28;20036;-54
2023/08/28 13:37:16;;;;;;;5.38;3.20;;;20.10;95.70;;;;;;5094341;28;20377;-53
2023/08/28 13:40:02;;;;;;;3.60;2.67;;;20.60;95.50;;;;;;5093219;28;20455;-50
2023/08/28 13:42:48;;;;;;;3.30;3.00;;;21.00;95.30;;;;;;5095111;28;20024;-53
2023/08/28 13:45:34;;;;;;;3.50;2.50;;;21.20;94.80;;;;;;5093485;28;20069;-54
2023/08/28 13:48:22;;;;;;;2.88;2.60;;;21.30;94.60;;;;;;5092998;28;20155;-54
2023/08/28 13:51:11;;;;;;;4.72;2.97;;;21.50;94.50;;;;;;5093158;28;20032;-55
2023/08/28 13:53:57;;;;;;;5.03;3.00;;;21.40;94.40;;;;;;5093233;28;20028;-53
2023/08/28 13:56:43;;;;;;;4.88;2.83;;;21.30;94.50;;;;;;5092809;28;20066;-58
2023/08/28 13:59:29;;;;;;;5.40;3.78;;;20.90;94.40;;;;;;5094114;28;20032;-55
2023/08/28 14:02:15;;;;;;;3.78;2.72;;;20.60;94.10;;;;;;5079050;28;20029;-51
2023/08/28 14:05:02;;;;;;;4.15;3.03;;;20.50;94.70;;;;;;5078546;28;20031;-55
2023/08/28 14:07:48;;;;;;;3.45;2.65;;;20.30;94.80;;;;;;5093115;28;20032;-52
2023/08/28 14:10:34;;;;;;;6.90;3.38;;;20.30;94.80;;;;;;5094496;28;20527;-47
2023/08/28 14:13:20;;;;;;;5.38;2.92;;;20.20;95.10;;;;;;5094341;28;20098;-48
2023/08/28 14:16:06;;;;;;;3.20;2.90;;;20.00;95.30;;;;;;5092882;28;20024;-51
2023/08/28 14:18:52;;;;;;;5.45;2.72;;;19.90;95.40;;;;;;5093325;28;20069;-50
2023/08/28 14:21:38;;;;;;;3.25;2.70;;;19.90;95.90;;;;;;5092338;28;20024;-54
2023/08/28 14:24:25;;;;;;;3.85;3.08;;;19.80;96.00;;;;;;5092876;28;20078;-53
2023/08/28 14:27:11;;;;;;;4.30;3.55;;;19.80;96.40;;;;;;5091766;28;20074;-51
2023/08/28 14:30:01;;;;;;;5.18;3.63;;;19.80;96.30;;;;;;5091859;28;20038;-51